sensor_id;sensor_type;location;lat;lon;timestamp;P1;durP1;ratioP1;P2;durP2;ratioP2
45490;SDS011;31237;45.586;13.782;2023-02-01T00:01:57;0.40;;;0.40;;
45490;SDS011;31237;45.586;13.782;2023-02-01T00:04:23;2.65;;;1.40;;
45490;SDS011;31237;45.586;13.782;2023-02-01T00:06:49;0.68;;;0.68;;
45490;SDS011;31237;45.586;13.782;2023-02-01T00:09:14;0.70;;;0.70;;
45490;SDS011;31237;45.586;13.782;2023-02-01T00:11:40;1.15;;;1.15;;
45490;SDS011;31237;45.586;13.782;2023-02-01T00:14:06;0.68;;;0.68;;
45490;SDS011;31237;45.586;13.782;2023-02-01T00:16:33;1.55;;;1.40;;
45490;SDS011;31237;45.586;13.782;2023-02-01T00:19:06;0.60;;;0.60;;
45490;SDS011;31237;45.586;13.782;2023-02-01T00:21:35;0.60;;;0.60;;
45490;SDS011;31237;45.586;13.782;2023-02-01T00:24:01;1.95;;;1.85;;
45490;SDS011;31237;45.586;13.782;2023-02-01T00:26:32;2.05;;;1.52;;
45490;SDS011;31237;45.586;13.782;2023-02-01T00:28:59;0.50;;;0.50;;
45490;SDS011;31237;45.586;13.782;2023-02-01T00:31:26;0.95;;;0.95;;
45490;SDS011;31237;45.586;13.782;2023-02-01T00:33:52;1.10;;;1.10;;
45490;SDS011;31237;45.586;13.782;2023-02-01T00:36:17;1.63;;;1.52;;
45490;SDS011;31237;45.586;13.782;2023-02-01T00:38:44;0.95;;;0.95;;
45490;SDS011;31237;45.586;13.782;2023-02-01T00:41:17;0.93;;;0.93;;
45490;SDS011;31237;45.586;13.782;2023-02-01T00:43:44;1.17;;;0.88;;
45490;SDS011;31237;45.586;13.782;2023-02-01T00:46:12;2.45;;;1.42;;
45490;SDS011;31237;45.586;13.782;2023-02-01T00:48:39;0.40;;;0.40;;
45490;SDS011;31237;45.586;13.782;2023-02-01T00:51:09;1.27;;;1.17;;
45490;SDS011;31237;45.586;13.782;2023-02-01T00:53:39;0.57;;;0.57;;
45490;SDS011;31237;45.586;13.782;2023-02-01T00:56:06;1.20;;;1.20;;
45490;SDS011;31237;45.586;13.782;2023-02-01T00:58:33;0.85;;;0.70;;
45490;SDS011;31237;45.586;13.782;2023-02-01T01:01:03;0.93;;;0.93;;
45490;SDS011;31237;45.586;13.782;2023-02-01T01:03:30;0.77;;;0.77;;
45490;SDS011;31237;45.586;13.782;2023-02-01T01:05:58;0.50;;;0.50;;
45490;SDS011;31237;45.586;13.782;2023-02-01T01:08:25;0.93;;;0.93;;
45490;SDS011;31237;45.586;13.782;2023-02-01T01:10:51;0.60;;;0.60;;
45490;SDS011;31237;45.586;13.782;2023-02-01T01:13:17;1.48;;;1.38;;
45490;SDS011;31237;45.586;13.782;2023-02-01T01:15:43;1.00;;;0.93;;
45490;SDS011;31237;45.586;13.782;2023-02-01T01:18:10;2.25;;;2.05;;
45490;SDS011;31237;45.586;13.782;2023-02-01T01:20:37;0.35;;;0.35;;
45490;SDS011;31237;45.586;13.782;2023-02-01T01:23:04;0.30;;;0.30;;
45490;SDS011;31237;45.586;13.782;2023-02-01T01:25:30;0.30;;;0.30;;
45490;SDS011;31237;45.586;13.782;2023-02-01T01:27:57;1.08;;;1.02;;
45490;SDS011;31237;45.586;13.782;2023-02-01T01:30:23;2.50;;;0.63;;
45490;SDS011;31237;45.586;13.782;2023-02-01T01:32:49;0.55;;;0.55;;
45490;SDS011;31237;45.586;13.782;2023-02-01T01:35:16;0.50;;;0.50;;
45490;SDS011;31237;45.586;13.782;2023-02-01T01:37:42;0.93;;;0.90;;
45490;SDS011;31237;45.586;13.782;2023-02-01T01:40:09;0.60;;;0.60;;
45490;SDS011;31237;45.586;13.782;2023-02-01T01:42:39;1.23;;;1.15;;
45490;SDS011;31237;45.586;13.782;2023-02-01T01:45:20;0.70;;;0.70;;
45490;SDS011;31237;45.586;13.782;2023-02-01T01:47:59;0.75;;;0.75;;
45490;SDS011;31237;45.586;13.782;2023-02-01T01:50:40;0.50;;;0.50;;
45490;SDS011;31237;45.586;13.782;2023-02-01T01:53:07;0.40;;;0.40;;
45490;SDS011;31237;45.586;13.782;2023-02-01T01:55:38;0.38;;;0.38;;
45490;SDS011;31237;45.586;13.782;2023-02-01T01:58:10;0.80;;;0.80;;
45490;SDS011;31237;45.586;13.782;2023-02-01T02:00:40;1.38;;;0.60;;
45490;SDS011;31237;45.586;13.782;2023-02-01T02:03:08;0.55;;;0.55;;
45490;SDS011;31237;45.586;13.782;2023-02-01T02:05:44;0.30;;;0.30;;
45490;SDS011;31237;45.586;13.782;2023-02-01T02:08:13;0.40;;;0.40;;
45490;SDS011;31237;45.586;13.782;2023-02-01T02:10:39;0.57;;;0.57;;
45490;SDS011;31237;45.586;13.782;2023-02-01T02:18:31;0.30;;;0.30;;
45490;SDS011;31237;45.586;13.782;2023-02-01T02:21:23;0.40;;;0.40;;
45490;SDS011;31237;45.586;13.782;2023-02-01T02:38:15;0.40;;;0.40;;
45490;SDS011;31237;45.586;13.782;2023-02-01T02:43:46;1.48;;;1.35;;
45490;SDS011;31237;45.586;13.782;2023-02-01T02:46:36;0.65;;;0.65;;
45490;SDS011;31237;45.586;13.782;2023-02-01T02:49:42;1.08;;;1.08;;
45490;SDS011;31237;45.586;13.782;2023-02-01T02:52:38;0.32;;;0.32;;
45490;SDS011;31237;45.586;13.782;2023-02-01T02:55:35;4.93;;;1.38;;
45490;SDS011;31237;45.586;13.782;2023-02-01T02:58:04;1.33;;;1.25;;
45490;SDS011;31237;45.586;13.782;2023-02-01T03:00:50;0.98;;;0.98;;
45490;SDS011;31237;45.586;13.782;2023-02-01T03:03:37;1.58;;;1.48;;
45490;SDS011;31237;45.586;13.782;2023-02-01T03:06:23;0.55;;;0.55;;
45490;SDS011;31237;45.586;13.782;2023-02-01T03:08:50;0.77;;;0.77;;
45490;SDS011;31237;45.586;13.782;2023-02-01T03:11:19;0.52;;;0.47;;
45490;SDS011;31237;45.586;13.782;2023-02-01T03:13:56;0.50;;;0.50;;
45490;SDS011;31237;45.586;13.782;2023-02-01T03:16:26;1.63;;;1.02;;
45490;SDS011;31237;45.586;13.782;2023-02-01T03:18:54;0.32;;;0.32;;
45490;SDS011;31237;45.586;13.782;2023-02-01T03:21:43;2.05;;;1.95;;
45490;SDS011;31237;45.586;13.782;2023-02-01T03:24:59;1.13;;;1.05;;
45490;SDS011;31237;45.586;13.782;2023-02-01T03:27:14;1.70;;;1.40;;
45490;SDS011;31237;45.586;13.782;2023-02-01T03:29:54;0.77;;;0.77;;
45490;SDS011;31237;45.586;13.782;2023-02-01T03:32:24;0.40;;;0.40;;
45490;SDS011;31237;45.586;13.782;2023-02-01T03:34:50;0.43;;;0.43;;
45490;SDS011;31237;45.586;13.782;2023-02-01T03:37:25;0.60;;;0.60;;
45490;SDS011;31237;45.586;13.782;2023-02-01T03:42:24;0.60;;;0.60;;
45490;SDS011;31237;45.586;13.782;2023-02-01T03:45:11;0.80;;;0.80;;
45490;SDS011;31237;45.586;13.782;2023-02-01T03:47:43;2.47;;;1.33;;
45490;SDS011;31237;45.586;13.782;2023-02-01T03:50:14;0.80;;;0.80;;
45490;SDS011;31237;45.586;13.782;2023-02-01T03:52:43;0.82;;;0.82;;
45490;SDS011;31237;45.586;13.782;2023-02-01T03:55:23;0.40;;;0.40;;
45490;SDS011;31237;45.586;13.782;2023-02-01T03:57:59;0.52;;;0.52;;
45490;SDS011;31237;45.586;13.782;2023-02-01T04:00:36;0.57;;;0.57;;
45490;SDS011;31237;45.586;13.782;2023-02-01T04:03:03;0.60;;;0.60;;
45490;SDS011;31237;45.586;13.782;2023-02-01T04:05:31;0.50;;;0.50;;
45490;SDS011;31237;45.586;13.782;2023-02-01T04:07:57;1.80;;;1.70;;
45490;SDS011;31237;45.586;13.782;2023-02-01T04:10:23;0.88;;;0.77;;
45490;SDS011;31237;45.586;13.782;2023-02-01T04:12:49;2.08;;;1.88;;
45490;SDS011;31237;45.586;13.782;2023-02-01T04:15:14;0.30;;;0.30;;
45490;SDS011;31237;45.586;13.782;2023-02-01T04:17:40;1.52;;;1.42;;
45490;SDS011;31237;45.586;13.782;2023-02-01T04:20:06;1.55;;;1.38;;
45490;SDS011;31237;45.586;13.782;2023-02-01T04:22:32;0.40;;;0.40;;
45490;SDS011;31237;45.586;13.782;2023-02-01T04:24:57;0.90;;;0.82;;
45490;SDS011;31237;45.586;13.782;2023-02-01T04:27:24;0.40;;;0.40;;
45490;SDS011;31237;45.586;13.782;2023-02-01T04:29:49;0.80;;;0.80;;
45490;SDS011;31237;45.586;13.782;2023-02-01T04:32:16;1.33;;;1.30;;
45490;SDS011;31237;45.586;13.782;2023-02-01T04:34:42;1.75;;;1.48;;
45490;SDS011;31237;45.586;13.782;2023-02-01T04:37:08;0.40;;;0.40;;
45490;SDS011;31237;45.586;13.782;2023-02-01T04:39:34;0.73;;;0.73;;
45490;SDS011;31237;45.586;13.782;2023-02-01T04:41:59;0.88;;;0.82;;
45490;SDS011;31237;45.586;13.782;2023-02-01T04:44:25;0.82;;;0.82;;
45490;SDS011;31237;45.586;13.782;2023-02-01T04:46:51;0.30;;;0.30;;
45490;SDS011;31237;45.586;13.782;2023-02-01T04:49:16;1.42;;;1.33;;
45490;SDS011;31237;45.586;13.782;2023-02-01T04:51:42;0.60;;;0.60;;
45490;SDS011;31237;45.586;13.782;2023-02-01T04:54:08;2.95;;;1.42;;
45490;SDS011;31237;45.586;13.782;2023-02-01T04:56:36;1.05;;;1.05;;
45490;SDS011;31237;45.586;13.782;2023-02-01T04:59:02;0.50;;;0.50;;
45490;SDS011;31237;45.586;13.782;2023-02-01T05:01:29;0.70;;;0.70;;
45490;SDS011;31237;45.586;13.782;2023-02-01T05:03:55;0.60;;;0.60;;
45490;SDS011;31237;45.586;13.782;2023-02-01T05:06:21;0.82;;;0.82;;
45490;SDS011;31237;45.586;13.782;2023-02-01T05:08:47;1.45;;;1.35;;
45490;SDS011;31237;45.586;13.782;2023-02-01T05:11:13;1.23;;;1.17;;
45490;SDS011;31237;45.586;13.782;2023-02-01T05:13:58;1.25;;;1.15;;
45490;SDS011;31237;45.586;13.782;2023-02-01T05:16:24;1.30;;;1.27;;
45490;SDS011;31237;45.586;13.782;2023-02-01T05:18:50;0.73;;;0.73;;
45490;SDS011;31237;45.586;13.782;2023-02-01T05:21:16;1.95;;;1.52;;
45490;SDS011;31237;45.586;13.782;2023-02-01T05:23:42;2.42;;;1.98;;
45490;SDS011;31237;45.586;13.782;2023-02-01T05:28:52;0.98;;;0.98;;
45490;SDS011;31237;45.586;13.782;2023-02-01T05:31:18;0.52;;;0.52;;
45490;SDS011;31237;45.586;13.782;2023-02-01T05:33:43;3.17;;;2.00;;
45490;SDS011;31237;45.586;13.782;2023-02-01T05:36:09;1.17;;;1.15;;
45490;SDS011;31237;45.586;13.782;2023-02-01T05:38:35;0.63;;;0.63;;
45490;SDS011;31237;45.586;13.782;2023-02-01T05:41:01;1.02;;;1.00;;
45490;SDS011;31237;45.586;13.782;2023-02-01T05:43:26;1.08;;;1.00;;
45490;SDS011;31237;45.586;13.782;2023-02-01T05:45:52;2.33;;;2.13;;
45490;SDS011;31237;45.586;13.782;2023-02-01T05:48:18;1.77;;;1.67;;
45490;SDS011;31237;45.586;13.782;2023-02-01T05:50:44;1.35;;;1.25;;
45490;SDS011;31237;45.586;13.782;2023-02-01T05:53:10;3.10;;;1.13;;
45490;SDS011;31237;45.586;13.782;2023-02-01T05:55:36;1.58;;;1.48;;
45490;SDS011;31237;45.586;13.782;2023-02-01T05:58:02;4.57;;;2.05;;
45490;SDS011;31237;45.586;13.782;2023-02-01T06:00:28;1.60;;;1.50;;
45490;SDS011;31237;45.586;13.782;2023-02-01T06:02:54;1.25;;;1.15;;
45490;SDS011;31237;45.586;13.782;2023-02-01T06:05:20;1.45;;;1.35;;
45490;SDS011;31237;45.586;13.782;2023-02-01T06:07:46;3.00;;;2.10;;
45490;SDS011;31237;45.586;13.782;2023-02-01T06:10:14;0.90;;;0.90;;
45490;SDS011;31237;45.586;13.782;2023-02-01T06:12:41;0.85;;;0.85;;
45490;SDS011;31237;45.586;13.782;2023-02-01T06:15:07;0.38;;;0.38;;
45490;SDS011;31237;45.586;13.782;2023-02-01T06:17:34;1.02;;;1.00;;
45490;SDS011;31237;45.586;13.782;2023-02-01T06:19:59;0.77;;;0.77;;
45490;SDS011;31237;45.586;13.782;2023-02-01T06:22:25;0.70;;;0.70;;
45490;SDS011;31237;45.586;13.782;2023-02-01T06:24:51;6.40;;;1.27;;
45490;SDS011;31237;45.586;13.782;2023-02-01T06:27:17;0.50;;;0.50;;
45490;SDS011;31237;45.586;13.782;2023-02-01T06:29:42;1.15;;;1.15;;
45490;SDS011;31237;45.586;13.782;2023-02-01T06:32:08;3.30;;;3.03;;
45490;SDS011;31237;45.586;13.782;2023-02-01T06:34:34;2.55;;;1.77;;
45490;SDS011;31237;45.586;13.782;2023-02-01T06:36:59;0.90;;;0.90;;
45490;SDS011;31237;45.586;13.782;2023-02-01T06:39:25;0.98;;;0.98;;
45490;SDS011;31237;45.586;13.782;2023-02-01T06:41:52;2.60;;;1.65;;
45490;SDS011;31237;45.586;13.782;2023-02-01T06:44:18;0.95;;;0.95;;
45490;SDS011;31237;45.586;13.782;2023-02-01T06:46:43;1.83;;;1.25;;
45490;SDS011;31237;45.586;13.782;2023-02-01T06:49:09;0.68;;;0.68;;
45490;SDS011;31237;45.586;13.782;2023-02-01T06:51:35;2.70;;;1.95;;
45490;SDS011;31237;45.586;13.782;2023-02-01T06:54:01;1.23;;;1.13;;
45490;SDS011;31237;45.586;13.782;2023-02-01T06:56:27;0.88;;;0.88;;
45490;SDS011;31237;45.586;13.782;2023-02-01T06:58:53;2.40;;;1.02;;
45490;SDS011;31237;45.586;13.782;2023-02-01T07:01:19;1.52;;;0.73;;
45490;SDS011;31237;45.586;13.782;2023-02-01T07:03:48;0.73;;;0.73;;
45490;SDS011;31237;45.586;13.782;2023-02-01T07:06:16;0.70;;;0.70;;
45490;SDS011;31237;45.586;13.782;2023-02-01T07:08:42;0.45;;;0.45;;
45490;SDS011;31237;45.586;13.782;2023-02-01T07:11:09;4.03;;;2.38;;
45490;SDS011;31237;45.586;13.782;2023-02-01T07:13:36;1.10;;;1.10;;
45490;SDS011;31237;45.586;13.782;2023-02-01T07:16:04;0.70;;;0.70;;
45490;SDS011;31237;45.586;13.782;2023-02-01T07:18:32;0.40;;;0.40;;
45490;SDS011;31237;45.586;13.782;2023-02-01T07:20:58;0.55;;;0.55;;
45490;SDS011;31237;45.586;13.782;2023-02-01T07:23:25;0.95;;;0.95;;
45490;SDS011;31237;45.586;13.782;2023-02-01T07:25:55;0.50;;;0.50;;
45490;SDS011;31237;45.586;13.782;2023-02-01T07:28:22;1.88;;;1.50;;
45490;SDS011;31237;45.586;13.782;2023-02-01T07:30:49;0.52;;;0.52;;
45490;SDS011;31237;45.586;13.782;2023-02-01T07:33:24;0.60;;;0.60;;
45490;SDS011;31237;45.586;13.782;2023-02-01T07:35:51;1.77;;;1.17;;
45490;SDS011;31237;45.586;13.782;2023-02-01T07:38:17;0.82;;;0.82;;
45490;SDS011;31237;45.586;13.782;2023-02-01T07:40:43;2.05;;;1.13;;
45490;SDS011;31237;45.586;13.782;2023-02-01T07:43:09;4.38;;;1.77;;
45490;SDS011;31237;45.586;13.782;2023-02-01T07:45:35;0.60;;;0.60;;
45490;SDS011;31237;45.586;13.782;2023-02-01T07:48:01;1.33;;;1.20;;
45490;SDS011;31237;45.586;13.782;2023-02-01T07:50:28;8.10;;;2.47;;
45490;SDS011;31237;45.586;13.782;2023-02-01T07:52:54;3.15;;;1.33;;
45490;SDS011;31237;45.586;13.782;2023-02-01T07:55:20;4.07;;;3.20;;
45490;SDS011;31237;45.586;13.782;2023-02-01T07:57:46;1.58;;;1.48;;
45490;SDS011;31237;45.586;13.782;2023-02-01T08:00:12;2.92;;;2.63;;
45490;SDS011;31237;45.586;13.782;2023-02-01T08:02:57;0.60;;;0.60;;
45490;SDS011;31237;45.586;13.782;2023-02-01T08:05:25;0.80;;;0.80;;
45490;SDS011;31237;45.586;13.782;2023-02-01T08:07:52;0.82;;;0.82;;
45490;SDS011;31237;45.586;13.782;2023-02-01T08:10:18;1.63;;;1.52;;
45490;SDS011;31237;45.586;13.782;2023-02-01T08:12:45;1.63;;;1.48;;
45490;SDS011;31237;45.586;13.782;2023-02-01T08:15:16;1.90;;;1.80;;
45490;SDS011;31237;45.586;13.782;2023-02-01T08:17:46;1.90;;;1.80;;
45490;SDS011;31237;45.586;13.782;2023-02-01T08:20:16;1.10;;;1.10;;
45490;SDS011;31237;45.586;13.782;2023-02-01T08:22:43;0.93;;;0.90;;
45490;SDS011;31237;45.586;13.782;2023-02-01T08:25:10;2.17;;;1.98;;
45490;SDS011;31237;45.586;13.782;2023-02-01T08:27:36;1.48;;;1.38;;
45490;SDS011;31237;45.586;13.782;2023-02-01T08:30:03;9.27;;;2.50;;
45490;SDS011;31237;45.586;13.782;2023-02-01T08:32:30;1.00;;;1.00;;
45490;SDS011;31237;45.586;13.782;2023-02-01T08:34:56;1.90;;;1.80;;
45490;SDS011;31237;45.586;13.782;2023-02-01T08:37:21;0.52;;;0.52;;
45490;SDS011;31237;45.586;13.782;2023-02-01T08:39:47;1.60;;;1.27;;
45490;SDS011;31237;45.586;13.782;2023-02-01T08:42:15;8.20;;;2.63;;
45490;SDS011;31237;45.586;13.782;2023-02-01T08:45:00;1.83;;;1.70;;
45490;SDS011;31237;45.586;13.782;2023-02-01T08:47:27;1.65;;;1.40;;
45490;SDS011;31237;45.586;13.782;2023-02-01T08:49:53;2.45;;;2.20;;
45490;SDS011;31237;45.586;13.782;2023-02-01T08:52:19;2.83;;;1.65;;
45490;SDS011;31237;45.586;13.782;2023-02-01T08:54:45;1.17;;;1.15;;
45490;SDS011;31237;45.586;13.782;2023-02-01T08:57:11;1.05;;;1.05;;
45490;SDS011;31237;45.586;13.782;2023-02-01T08:59:38;0.57;;;0.57;;
45490;SDS011;31237;45.586;13.782;2023-02-01T09:02:03;2.28;;;1.58;;
45490;SDS011;31237;45.586;13.782;2023-02-01T09:04:29;2.03;;;1.90;;
45490;SDS011;31237;45.586;13.782;2023-02-01T09:06:55;1.08;;;1.02;;
45490;SDS011;31237;45.586;13.782;2023-02-01T09:09:21;0.82;;;0.82;;
45490;SDS011;31237;45.586;13.782;2023-02-01T09:11:48;1.42;;;1.40;;
45490;SDS011;31237;45.586;13.782;2023-02-01T09:14:15;3.00;;;2.00;;
45490;SDS011;31237;45.586;13.782;2023-02-01T09:16:41;0.82;;;0.82;;
45490;SDS011;31237;45.586;13.782;2023-02-01T09:19:07;1.45;;;1.35;;
45490;SDS011;31237;45.586;13.782;2023-02-01T09:21:33;5.97;;;2.58;;
45490;SDS011;31237;45.586;13.782;2023-02-01T09:24:00;1.42;;;1.33;;
45490;SDS011;31237;45.586;13.782;2023-02-01T09:26:26;1.15;;;1.10;;
45490;SDS011;31237;45.586;13.782;2023-02-01T09:28:52;7.97;;;1.85;;
45490;SDS011;31237;45.586;13.782;2023-02-01T09:31:18;1.90;;;1.70;;
45490;SDS011;31237;45.586;13.782;2023-02-01T09:33:44;2.10;;;1.60;;
45490;SDS011;31237;45.586;13.782;2023-02-01T09:36:10;1.25;;;1.20;;
45490;SDS011;31237;45.586;13.782;2023-02-01T09:38:36;2.30;;;2.00;;
45490;SDS011;31237;45.586;13.782;2023-02-01T09:41:06;1.83;;;1.73;;
45490;SDS011;31237;45.586;13.782;2023-02-01T09:43:58;2.20;;;2.00;;
45490;SDS011;31237;45.586;13.782;2023-02-01T09:46:32;0.70;;;0.70;;
45490;SDS011;31237;45.586;13.782;2023-02-01T09:49:08;3.75;;;1.65;;
45490;SDS011;31237;45.586;13.782;2023-02-01T09:51:49;1.70;;;1.58;;
45490;SDS011;31237;45.586;13.782;2023-02-01T09:54:22;1.35;;;1.30;;
45490;SDS011;31237;45.586;13.782;2023-02-01T09:59:51;0.90;;;0.90;;
45490;SDS011;31237;45.586;13.782;2023-02-01T10:02:26;0.60;;;0.60;;
45490;SDS011;31237;45.586;13.782;2023-02-01T10:04:57;4.70;;;2.10;;
45490;SDS011;31237;45.586;13.782;2023-02-01T10:25:44;1.98;;;1.88;;
45490;SDS011;31237;45.586;13.782;2023-02-01T10:28:21;0.95;;;0.95;;
45490;SDS011;31237;45.586;13.782;2023-02-01T10:30:49;0.80;;;0.80;;
45490;SDS011;31237;45.586;13.782;2023-02-01T10:33:27;0.90;;;0.90;;
45490;SDS011;31237;45.586;13.782;2023-02-01T10:38:45;0.98;;;0.98;;
45490;SDS011;31237;45.586;13.782;2023-02-01T10:41:18;1.38;;;1.27;;
45490;SDS011;31237;45.586;13.782;2023-02-01T10:43:50;0.90;;;0.90;;
45490;SDS011;31237;45.586;13.782;2023-02-01T10:46:25;2.22;;;1.73;;
45490;SDS011;31237;45.586;13.782;2023-02-01T10:48:52;0.90;;;0.90;;
45490;SDS011;31237;45.586;13.782;2023-02-01T10:51:21;1.63;;;1.52;;
45490;SDS011;31237;45.586;13.782;2023-02-01T10:56:22;5.97;;;1.52;;
45490;SDS011;31237;45.586;13.782;2023-02-01T10:58:49;2.30;;;2.20;;
45490;SDS011;31237;45.586;13.782;2023-02-01T11:01:20;1.10;;;1.08;;
45490;SDS011;31237;45.586;13.782;2023-02-01T11:04:09;1.63;;;1.52;;
45490;SDS011;31237;45.586;13.782;2023-02-01T11:06:45;2.55;;;1.45;;
45490;SDS011;31237;45.586;13.782;2023-02-01T11:09:20;8.48;;;5.13;;
45490;SDS011;31237;45.586;13.782;2023-02-01T11:16:51;2.60;;;2.40;;
45490;SDS011;31237;45.586;13.782;2023-02-01T11:19:38;2.92;;;2.72;;
45490;SDS011;31237;45.586;13.782;2023-02-01T11:22:03;6.53;;;3.92;;
45490;SDS011;31237;45.586;13.782;2023-02-01T11:24:33;7.45;;;3.40;;
45490;SDS011;31237;45.586;13.782;2023-02-01T11:27:02;1.88;;;1.77;;
45490;SDS011;31237;45.586;13.782;2023-02-01T11:29:35;2.97;;;2.70;;
45490;SDS011;31237;45.586;13.782;2023-02-01T11:32:04;2.63;;;2.40;;
45490;SDS011;31237;45.586;13.782;2023-02-01T11:34:33;3.47;;;3.15;;
45490;SDS011;31237;45.586;13.782;2023-02-01T11:37:04;2.83;;;2.60;;
45490;SDS011;31237;45.586;13.782;2023-02-01T11:39:36;3.60;;;2.40;;
45490;SDS011;31237;45.586;13.782;2023-02-01T11:42:11;2.97;;;2.75;;
45490;SDS011;31237;45.586;13.782;2023-02-01T11:44:40;2.60;;;2.40;;
45490;SDS011;31237;45.586;13.782;2023-02-01T11:49:50;3.80;;;3.22;;
45490;SDS011;31237;45.586;13.782;2023-02-01T12:09:30;4.78;;;4.30;;
45490;SDS011;31237;45.586;13.782;2023-02-01T12:12:36;5.43;;;2.92;;
45490;SDS011;31237;45.586;13.782;2023-02-01T12:18:18;4.53;;;3.00;;
45490;SDS011;31237;45.586;13.782;2023-02-01T12:23:54;2.63;;;2.42;;
45490;SDS011;31237;45.586;13.782;2023-02-01T12:38:01;2.17;;;2.03;;
45490;SDS011;31237;45.586;13.782;2023-02-01T12:41:14;4.13;;;2.30;;
45490;SDS011;31237;45.586;13.782;2023-02-01T12:49:22;8.95;;;4.47;;
45490;SDS011;31237;45.586;13.782;2023-02-01T12:52:03;12.13;;;3.47;;
45490;SDS011;31237;45.586;13.782;2023-02-01T12:54:36;4.30;;;3.20;;
45490;SDS011;31237;45.586;13.782;2023-02-01T12:57:21;5.82;;;3.78;;
45490;SDS011;31237;45.586;13.782;2023-02-01T12:59:54;4.45;;;3.17;;
45490;SDS011;31237;45.586;13.782;2023-02-01T13:05:21;9.48;;;3.67;;
45490;SDS011;31237;45.586;13.782;2023-02-01T13:08:01;4.45;;;3.30;;
45490;SDS011;31237;45.586;13.782;2023-02-01T13:10:40;5.75;;;4.80;;
45490;SDS011;31237;45.586;13.782;2023-02-01T13:16:12;2.60;;;2.40;;
45490;SDS011;31237;45.586;13.782;2023-02-01T13:19:03;14.30;;;5.40;;
45490;SDS011;31237;45.586;13.782;2023-02-01T13:21:37;5.70;;;4.13;;
45490;SDS011;31237;45.586;13.782;2023-02-01T13:24:09;5.78;;;5.03;;
45490;SDS011;31237;45.586;13.782;2023-02-01T13:27:02;10.05;;;6.55;;
45490;SDS011;31237;45.586;13.782;2023-02-01T13:29:28;7.65;;;5.03;;
45490;SDS011;31237;45.586;13.782;2023-02-01T13:34:38;10.80;;;5.72;;
45490;SDS011;31237;45.586;13.782;2023-02-01T13:40:17;5.18;;;4.00;;
45490;SDS011;31237;45.586;13.782;2023-02-01T13:42:48;3.30;;;3.00;;
45490;SDS011;31237;45.586;13.782;2023-02-01T13:45:21;13.43;;;4.45;;
45490;SDS011;31237;45.586;13.782;2023-02-01T13:47:51;3.53;;;3.17;;
45490;SDS011;31237;45.586;13.782;2023-02-01T13:55:26;5.05;;;3.88;;
45490;SDS011;31237;45.586;13.782;2023-02-01T13:58:00;9.70;;;4.20;;
45490;SDS011;31237;45.586;13.782;2023-02-01T14:03:54;9.68;;;6.85;;
45490;SDS011;31237;45.586;13.782;2023-02-01T14:09:35;9.30;;;6.97;;
45490;SDS011;31237;45.586;13.782;2023-02-01T14:16:43;9.02;;;5.97;;
45490;SDS011;31237;45.586;13.782;2023-02-01T14:19:32;6.45;;;4.13;;
45490;SDS011;31237;45.586;13.782;2023-02-01T14:22:00;10.93;;;5.15;;
45490;SDS011;31237;45.586;13.782;2023-02-01T14:24:50;9.50;;;6.32;;
45490;SDS011;31237;45.586;13.782;2023-02-01T14:29:51;8.38;;;5.47;;
45490;SDS011;31237;45.586;13.782;2023-02-01T14:32:23;7.18;;;4.88;;
45490;SDS011;31237;45.586;13.782;2023-02-01T14:34:59;10.30;;;4.68;;
45490;SDS011;31237;45.586;13.782;2023-02-01T14:37:28;9.25;;;6.32;;
45490;SDS011;31237;45.586;13.782;2023-02-01T14:47:48;6.00;;;4.28;;
45490;SDS011;31237;45.586;13.782;2023-02-01T14:58:32;6.85;;;5.28;;
45490;SDS011;31237;45.586;13.782;2023-02-01T15:01:18;9.20;;;8.27;;
45490;SDS011;31237;45.586;13.782;2023-02-01T15:04:13;12.45;;;9.68;;
45490;SDS011;31237;45.586;13.782;2023-02-01T15:09:18;10.93;;;8.35;;
45490;SDS011;31237;45.586;13.782;2023-02-01T15:12:03;7.97;;;6.80;;
45490;SDS011;31237;45.586;13.782;2023-02-01T15:14:46;21.15;;;8.70;;
45490;SDS011;31237;45.586;13.782;2023-02-01T15:17:23;4.57;;;4.18;;
45490;SDS011;31237;45.586;13.782;2023-02-01T15:19:54;9.77;;;7.15;;
45490;SDS011;31237;45.586;13.782;2023-02-01T15:22:28;13.73;;;6.28;;
45490;SDS011;31237;45.586;13.782;2023-02-01T15:24:56;11.73;;;5.78;;
45490;SDS011;31237;45.586;13.782;2023-02-01T15:27:26;5.20;;;4.32;;
45490;SDS011;31237;45.586;13.782;2023-02-01T15:29:53;4.78;;;4.35;;
45490;SDS011;31237;45.586;13.782;2023-02-01T15:32:35;3.75;;;3.30;;
45490;SDS011;31237;45.586;13.782;2023-02-01T15:35:03;5.80;;;5.05;;
45490;SDS011;31237;45.586;13.782;2023-02-01T15:37:30;9.27;;;6.32;;
45490;SDS011;31237;45.586;13.782;2023-02-01T15:42:54;4.25;;;3.67;;
45490;SDS011;31237;45.586;13.782;2023-02-01T15:45:25;4.60;;;4.20;;
45490;SDS011;31237;45.586;13.782;2023-02-01T15:47:53;12.40;;;5.30;;
45490;SDS011;31237;45.586;13.782;2023-02-01T15:50:21;4.32;;;3.33;;
45490;SDS011;31237;45.586;13.782;2023-02-01T15:52:48;4.85;;;4.22;;
45490;SDS011;31237;45.586;13.782;2023-02-01T15:55:23;4.43;;;4.03;;
45490;SDS011;31237;45.586;13.782;2023-02-01T15:58:09;3.30;;;2.33;;
45490;SDS011;31237;45.586;13.782;2023-02-01T16:00:45;4.07;;;3.20;;
45490;SDS011;31237;45.586;13.782;2023-02-01T16:03:50;9.32;;;5.07;;
45490;SDS011;31237;45.586;13.782;2023-02-01T16:08:49;3.60;;;3.30;;
45490;SDS011;31237;45.586;13.782;2023-02-01T16:11:23;13.50;;;3.90;;
45490;SDS011;31237;45.586;13.782;2023-02-01T16:13:50;3.83;;;3.20;;
45490;SDS011;31237;45.586;13.782;2023-02-01T16:16:16;5.13;;;3.72;;
45490;SDS011;31237;45.586;13.782;2023-02-01T16:18:42;2.10;;;1.98;;
45490;SDS011;31237;45.586;13.782;2023-02-01T16:21:08;5.82;;;4.53;;
45490;SDS011;31237;45.586;13.782;2023-02-01T16:23:35;1.73;;;1.63;;
45490;SDS011;31237;45.586;13.782;2023-02-01T16:26:01;3.55;;;2.35;;
45490;SDS011;31237;45.586;13.782;2023-02-01T16:28:28;1.17;;;1.15;;
45490;SDS011;31237;45.586;13.782;2023-02-01T16:30:54;2.38;;;2.17;;
45490;SDS011;31237;45.586;13.782;2023-02-01T16:33:21;2.47;;;2.22;;
45490;SDS011;31237;45.586;13.782;2023-02-01T16:35:48;0.70;;;0.70;;
45490;SDS011;31237;45.586;13.782;2023-02-01T16:38:15;1.95;;;1.85;;
45490;SDS011;31237;45.586;13.782;2023-02-01T16:40:44;3.75;;;3.22;;
45490;SDS011;31237;45.586;13.782;2023-02-01T16:43:21;2.40;;;1.90;;
45490;SDS011;31237;45.586;13.782;2023-02-01T16:45:49;3.38;;;3.03;;
45490;SDS011;31237;45.586;13.782;2023-02-01T16:50:53;1.73;;;1.63;;
45490;SDS011;31237;45.586;13.782;2023-02-01T16:53:21;1.65;;;1.55;;
45490;SDS011;31237;45.586;13.782;2023-02-01T16:55:48;1.65;;;1.55;;
45490;SDS011;31237;45.586;13.782;2023-02-01T16:58:18;1.20;;;1.13;;
45490;SDS011;31237;45.586;13.782;2023-02-01T17:00:45;2.30;;;2.10;;
45490;SDS011;31237;45.586;13.782;2023-02-01T17:03:12;2.72;;;2.53;;
45490;SDS011;31237;45.586;13.782;2023-02-01T17:05:54;1.20;;;1.10;;
45490;SDS011;31237;45.586;13.782;2023-02-01T17:08:28;2.78;;;1.50;;
45490;SDS011;31237;45.586;13.782;2023-02-01T17:10:59;2.15;;;2.03;;
45490;SDS011;31237;45.586;13.782;2023-02-01T17:13:25;0.80;;;0.80;;
45490;SDS011;31237;45.586;13.782;2023-02-01T17:15:53;1.85;;;1.75;;
45490;SDS011;31237;45.586;13.782;2023-02-01T17:18:22;1.30;;;1.25;;
45490;SDS011;31237;45.586;13.782;2023-02-01T17:20:50;1.45;;;1.08;;
45490;SDS011;31237;45.586;13.782;2023-02-01T17:23:17;2.80;;;2.45;;
45490;SDS011;31237;45.586;13.782;2023-02-01T17:25:44;1.65;;;1.55;;
45490;SDS011;31237;45.586;13.782;2023-02-01T17:28:12;1.20;;;1.20;;
45490;SDS011;31237;45.586;13.782;2023-02-01T17:30:41;1.42;;;1.40;;
45490;SDS011;31237;45.586;13.782;2023-02-01T17:33:16;1.27;;;1.20;;